createdAt,value
2019-03-30T00:00:55.300Z,59.77
2019-03-30T00:03:25.450Z,59.94
2019-03-30T00:05:55.619Z,59.87
2019-03-30T00:08:25.806Z,57.64
2019-03-30T00:10:55.974Z,58.43
2019-03-30T00:13:26.246Z,59.67
2019-03-30T00:15:56.377Z,59.90
2019-03-30T00:18:26.530Z,60.39
2019-03-30T00:20:56.781Z,62.27
2019-03-30T00:23:26.945Z,60.93
2019-03-30T00:25:57.162Z,62.86
2019-03-30T00:28:27.342Z,62.61
2019-03-30T00:30:57.519Z,63.03
2019-03-30T00:33:27.734Z,62.08
2019-03-30T00:35:57.890Z,61.72
2019-03-30T00:38:28.088Z,61.96
2019-03-30T00:40:58.231Z,62.41
2019-03-30T00:43:28.411Z,61.80
2019-03-30T00:45:58.599Z,61.99
2019-03-30T00:48:28.759Z,60.60
2019-03-30T00:50:58.974Z,60.18
2019-03-30T00:53:29.161Z,62.73
2019-03-30T00:55:59.301Z,60.44
2019-03-30T00:58:29.551Z,60.77
2019-03-30T01:01:00.019Z,59.73
2019-03-30T01:03:30.239Z,60.31
2019-03-30T01:06:00.482Z,59.96
2019-03-30T01:08:30.644Z,60.17
2019-03-30T01:11:00.905Z,60.54
2019-03-30T01:13:31.083Z,60.89
2019-03-30T01:16:01.308Z,60.95
2019-03-30T01:18:31.581Z,64.53
2019-03-30T01:21:01.700Z,62.00
2019-03-30T01:23:31.887Z,62.37
2019-03-30T01:26:02.050Z,62.18
2019-03-30T01:28:32.291Z,61.45
2019-03-30T01:31:02.433Z,60.70
2019-03-30T01:33:32.610Z,62.36
2019-03-30T01:36:02.783Z,63.23
2019-03-30T01:38:32.961Z,61.76
2019-03-30T01:41:03.287Z,63.48
2019-03-30T01:43:33.506Z,62.70
2019-03-30T01:46:03.864Z,63.80
2019-03-30T01:48:34.048Z,65.42
2019-03-30T01:51:04.342Z,63.98
2019-03-30T01:53:34.613Z,62.65
2019-03-30T01:56:05.267Z,63.41
2019-03-30T01:58:35.436Z,63.51
2019-03-30T02:01:05.742Z,63.83
2019-03-30T02:03:35.897Z,64.21
2019-03-30T02:06:06.136Z,64.46
2019-03-30T02:08:36.325Z,60.38
2019-03-30T02:11:06.649Z,60.80
2019-03-30T02:13:36.861Z,62.03
2019-03-30T02:16:07.128Z,63.53
2019-03-30T02:18:37.537Z,62.83
2019-03-30T02:21:07.671Z,64.07
2019-03-30T02:23:37.905Z,63.59
2019-03-30T02:26:08.071Z,63.61
2019-03-30T02:28:38.251Z,62.95
2019-03-30T02:31:08.573Z,63.20
2019-03-30T02:33:38.809Z,63.18
2019-03-30T02:36:09.160Z,63.13
2019-03-30T02:38:39.363Z,63.13
2019-03-30T02:41:09.580Z,63.61
2019-03-30T02:43:39.854Z,63.36
2019-03-30T02:46:10.014Z,63.23
2019-03-30T02:48:40.173Z,64.23
2019-03-30T02:51:10.370Z,65.88
2019-03-30T02:53:40.698Z,65.27
2019-03-30T02:56:10.899Z,64.44
2019-03-30T02:58:41.059Z,64.84
2019-03-30T03:01:11.308Z,65.25
2019-03-30T03:03:41.479Z,66.11
2019-03-30T03:06:11.745Z,74.11
2019-03-30T03:08:42.012Z,78.51
2019-03-30T03:11:12.181Z,70.46
2019-03-30T03:13:42.369Z,71.18
2019-03-30T03:16:12.605Z,70.51
2019-03-30T03:18:42.720Z,70.62
2019-03-30T03:21:12.927Z,69.66
2019-03-30T03:23:43.118Z,68.98
2019-03-30T03:26:13.241Z,69.23
2019-03-30T03:28:43.426Z,70.58
2019-03-30T03:31:13.626Z,70.39
2019-03-30T03:33:43.862Z,67.66
2019-03-30T03:36:14.028Z,69.70
2019-03-30T03:38:44.190Z,67.43
2019-03-30T03:41:14.384Z,67.02
2019-03-30T03:43:44.544Z,66.31
2019-03-30T03:46:14.823Z,65.40
2019-03-30T03:48:45.023Z,65.08
2019-03-30T03:51:25.820Z,66.62
2019-03-30T03:53:47.807Z,66.25
2019-03-30T03:56:18.526Z,66.82
2019-03-30T03:58:49.409Z,66.13
2019-03-30T04:01:22.636Z,66.54
2019-03-30T04:03:56.257Z,67.29
2019-03-30T04:06:28.347Z,65.85
2019-03-30T04:09:01.457Z,67.76
2019-03-30T04:11:33.053Z,65.61
2019-03-30T04:14:04.373Z,65.78
2019-03-30T04:16:34.639Z,66.35
2019-03-30T04:19:04.845Z,64.25
2019-03-30T04:21:43.874Z,64.46
2019-03-30T04:24:07.144Z,65.41
2019-03-30T04:26:37.313Z,67.74
2019-03-30T04:29:07.555Z,67.02
2019-03-30T04:31:37.713Z,69.84
2019-03-30T04:34:07.948Z,70.76
2019-03-30T04:36:38.177Z,72.85
2019-03-30T04:39:08.441Z,72.20
2019-03-30T04:41:38.591Z,71.78
2019-03-30T04:44:08.729Z,72.77
2019-03-30T04:46:38.912Z,70.96
2019-03-30T04:49:09.106Z,69.05
2019-03-30T04:51:39.334Z,70.44
2019-03-30T04:54:09.563Z,70.87
2019-03-30T04:56:39.781Z,72.84
2019-03-30T04:59:09.994Z,76.75
2019-03-30T05:01:40.149Z,73.28
2019-03-30T05:04:10.309Z,72.60
2019-03-30T05:06:40.488Z,69.92
2019-03-30T05:09:10.683Z,69.97
2019-03-30T05:11:40.919Z,68.11
2019-03-30T05:14:11.119Z,66.40
2019-03-30T05:16:41.409Z,66.63
2019-03-30T05:19:11.582Z,64.79
2019-03-30T05:21:41.812Z,65.51
2019-03-30T05:24:12.080Z,65.07
2019-03-30T05:26:42.245Z,69.04
2019-03-30T05:29:12.425Z,64.68
2019-03-30T05:31:42.597Z,63.60
2019-03-30T05:34:12.742Z,61.80
2019-03-30T05:36:42.942Z,60.07
2019-03-30T05:39:13.074Z,59.71
2019-03-30T05:41:43.210Z,61.15
2019-03-30T05:44:13.405Z,61.86
2019-03-30T05:46:43.549Z,62.61
2019-03-30T05:49:13.762Z,63.69
2019-03-30T05:51:43.935Z,62.06
2019-03-30T05:54:14.086Z,61.41
2019-03-30T05:56:44.246Z,60.14
2019-03-30T05:59:14.412Z,59.10
2019-03-30T06:01:44.646Z,58.52
2019-03-30T06:04:14.787Z,56.56
2019-03-30T06:06:44.932Z,58.36
2019-03-30T06:09:15.066Z,55.69
2019-03-30T06:11:45.258Z,53.74
2019-03-30T06:14:15.451Z,53.99
2019-03-30T06:16:45.610Z,52.11
2019-03-30T06:19:15.736Z,50.37
2019-03-30T06:21:45.894Z,50.47
2019-03-30T06:24:16.370Z,51.42
2019-03-30T06:26:46.508Z,53.05
2019-03-30T06:29:16.648Z,51.19
2019-03-30T06:31:46.988Z,49.39
2019-03-30T06:34:17.095Z,48.38
2019-03-30T06:36:47.212Z,48.35
2019-03-30T06:39:17.371Z,48.55
2019-03-30T06:41:47.571Z,49.73
2019-03-30T06:44:17.737Z,48.34
2019-03-30T06:46:47.881Z,48.09
2019-03-30T06:49:18.055Z,48.26
2019-03-30T06:51:51.679Z,48.17
2019-03-30T06:54:22.557Z,47.67
2019-03-30T06:56:52.759Z,46.26
2019-03-30T06:59:23.121Z,47.73
2019-03-30T07:01:53.845Z,49.49
2019-03-30T07:04:24.223Z,47.79
2019-03-30T07:06:54.587Z,47.50
2019-03-30T07:09:27.026Z,46.72
2019-03-30T07:12:00.683Z,46.83
2019-03-30T07:14:36.142Z,47.08
2019-03-30T07:17:07.820Z,46.58
2019-03-30T07:19:41.064Z,45.58
2019-03-30T07:22:12.446Z,45.80
2019-03-30T07:24:42.598Z,46.83
2019-03-30T07:27:12.942Z,46.03
2019-03-30T07:29:43.298Z,45.86
2019-03-30T07:32:13.585Z,47.04
2019-03-30T07:34:43.981Z,46.69
2019-03-30T07:37:14.165Z,45.10
2019-03-30T07:39:44.443Z,45.99
2019-03-30T07:42:14.985Z,46.75
2019-03-30T07:44:45.305Z,46.34
2019-03-30T07:47:15.586Z,45.58
2019-03-30T07:49:45.866Z,45.96
2019-03-30T07:52:16.091Z,46.40
2019-03-30T07:54:49.422Z,46.19
2019-03-30T07:57:19.704Z,47.90
2019-03-30T07:59:51.104Z,48.97
2019-03-30T08:02:22.318Z,47.38
2019-03-30T08:04:52.630Z,47.48
2019-03-30T08:07:22.977Z,47.32
2019-03-30T08:09:53.259Z,46.74
2019-03-30T08:12:23.605Z,46.68
2019-03-30T08:14:53.829Z,45.52
2019-03-30T08:17:24.136Z,45.66
2019-03-30T08:19:54.367Z,43.92
2019-03-30T08:22:24.655Z,48.62
2019-03-30T08:24:55.022Z,49.49
2019-03-30T08:27:25.268Z,47.57
2019-03-30T08:29:55.509Z,48.51
2019-03-30T08:32:25.910Z,50.68
2019-03-30T08:34:56.343Z,49.96
2019-03-30T08:37:26.726Z,47.46
2019-03-30T08:39:57.059Z,46.67
2019-03-30T08:42:27.224Z,46.56
2019-03-30T08:44:57.370Z,46.00
2019-03-30T08:47:27.551Z,45.51
2019-03-30T08:49:58.914Z,48.77
2019-03-30T08:52:29.399Z,45.86
2019-03-30T08:54:59.860Z,44.48
2019-03-30T08:57:30.154Z,43.93
2019-03-30T09:00:00.413Z,45.85
2019-03-30T09:02:30.658Z,47.29
2019-03-30T09:05:00.877Z,43.06
2019-03-30T09:07:31.107Z,43.29
2019-03-30T09:10:01.367Z,41.92
2019-03-30T09:12:31.589Z,44.23
2019-03-30T09:15:02.011Z,42.84
2019-03-30T09:17:32.244Z,41.15
2019-03-30T09:20:02.385Z,41.09
2019-03-30T09:22:32.556Z,38.69
2019-03-30T09:25:02.923Z,41.78
2019-03-30T09:27:33.105Z,39.99
2019-03-30T09:30:03.306Z,41.95
2019-03-30T09:32:33.556Z,42.74
2019-03-30T09:35:03.826Z,44.17
2019-03-30T09:37:34.105Z,42.28
2019-03-30T09:40:04.486Z,43.79
2019-03-30T09:42:34.661Z,42.65
2019-03-30T09:45:05.661Z,43.17
2019-03-30T09:47:36.320Z,43.06
2019-03-30T09:50:07.690Z,43.21
2019-03-30T09:52:38.081Z,42.95
2019-03-30T09:55:08.523Z,42.35
2019-03-30T09:57:39.459Z,42.04
2019-03-30T10:00:17.687Z,41.91
2019-03-30T10:02:51.975Z,41.86
2019-03-30T10:05:22.177Z,42.11
2019-03-30T10:07:52.312Z,41.05
2019-03-30T10:10:22.527Z,42.91
2019-03-30T10:12:52.679Z,42.12
2019-03-30T10:15:22.937Z,43.89
2019-03-30T10:17:53.223Z,42.27
2019-03-30T10:20:23.475Z,43.26
2019-03-30T10:22:53.716Z,42.43
2019-03-30T10:25:23.897Z,43.06
2019-03-30T10:27:54.101Z,42.42
2019-03-30T10:30:24.337Z,43.40
2019-03-30T10:32:54.567Z,42.75
2019-03-30T10:35:24.785Z,41.41
2019-03-30T10:37:54.998Z,42.29
2019-03-30T10:40:25.134Z,40.89
2019-03-30T10:42:55.352Z,41.90
2019-03-30T10:45:25.485Z,40.85
2019-03-30T10:47:55.616Z,42.46
2019-03-30T10:50:25.758Z,43.47
2019-03-30T10:52:55.941Z,42.06
2019-03-30T10:55:26.103Z,41.29
2019-03-30T10:57:58.581Z,39.55
2019-03-30T11:00:39.276Z,38.28
2019-03-30T11:03:09.620Z,40.59
2019-03-30T11:05:39.778Z,39.68
2019-03-30T11:08:09.960Z,36.97
2019-03-30T11:10:40.121Z,39.33
2019-03-30T11:13:10.258Z,38.00
2019-03-30T11:15:40.424Z,36.69
2019-03-30T11:18:10.563Z,37.72
2019-03-30T11:20:40.727Z,37.78
2019-03-30T11:23:10.873Z,37.07
2019-03-30T11:25:41.073Z,34.90
2019-03-30T11:28:11.302Z,34.48
2019-03-30T11:30:41.432Z,35.17
2019-03-30T11:33:11.633Z,35.02
2019-03-30T11:35:41.802Z,35.56
2019-03-30T11:38:11.930Z,35.96
2019-03-30T11:40:42.088Z,35.89
2019-03-30T11:43:13.209Z,36.69
2019-03-30T11:45:43.398Z,35.17
2019-03-30T11:48:13.610Z,34.90
2019-03-30T11:50:44.164Z,33.57
2019-03-30T11:53:14.416Z,32.77
2019-03-30T11:55:44.644Z,32.74
2019-03-30T11:58:14.869Z,34.59
2019-03-30T12:00:45.055Z,33.18
2019-03-30T12:03:15.198Z,32.53
2019-03-30T12:05:45.436Z,36.08
2019-03-30T12:08:15.690Z,32.72
2019-03-30T12:10:45.853Z,32.50
2019-03-30T12:13:16.080Z,34.79
2019-03-30T12:15:46.248Z,32.69
2019-03-30T12:18:16.518Z,33.80
2019-03-30T12:20:46.708Z,33.09
2019-03-30T12:23:16.889Z,32.92
2019-03-30T12:25:47.089Z,31.52
2019-03-30T12:28:17.260Z,31.41
2019-03-30T12:30:47.377Z,32.05
2019-03-30T12:33:17.606Z,32.28
2019-03-30T12:35:47.828Z,31.80
2019-03-30T12:38:18.018Z,31.64
2019-03-30T12:40:48.178Z,33.34
2019-03-30T12:43:18.447Z,31.67
2019-03-30T12:45:48.617Z,31.62
2019-03-30T12:48:18.796Z,31.39
2019-03-30T12:50:49.160Z,31.44
2019-03-30T12:53:19.290Z,30.27
2019-03-30T12:55:49.886Z,31.22
2019-03-30T12:58:20.089Z,30.88
2019-03-30T13:00:50.756Z,31.13
2019-03-30T13:03:20.995Z,31.92
2019-03-30T13:05:51.106Z,33.10
2019-03-30T13:08:21.246Z,32.62
2019-03-30T13:10:51.425Z,32.65
2019-03-30T13:14:26.194Z,31.44
2019-03-30T13:17:04.291Z,32.89
2019-03-30T13:19:54.836Z,32.58
2019-03-30T13:22:25.927Z,32.34
2019-03-30T13:24:56.064Z,31.95
2019-03-30T13:27:26.265Z,32.02
2019-03-30T13:29:56.420Z,31.85
2019-03-30T13:32:26.582Z,31.94
2019-03-30T13:34:56.755Z,31.90
2019-03-30T13:37:26.905Z,32.52
2019-03-30T13:39:57.009Z,33.36
2019-03-30T13:42:27.183Z,32.89
2019-03-30T13:44:57.369Z,32.43
2019-03-30T13:47:27.474Z,33.18
2019-03-30T13:49:57.662Z,33.82
2019-03-30T13:52:27.791Z,32.11
2019-03-30T13:54:57.931Z,31.78
2019-03-30T13:57:28.160Z,32.35
2019-03-30T13:59:58.351Z,31.89
2019-03-30T14:02:28.490Z,32.15
2019-03-30T14:04:58.650Z,31.60
2019-03-30T14:07:28.801Z,31.46
2019-03-30T14:09:58.932Z,31.18
2019-03-30T14:12:29.039Z,31.19
2019-03-30T14:14:59.177Z,33.03
2019-03-30T14:17:29.408Z,32.41
2019-03-30T14:19:59.690Z,32.92
2019-03-30T14:22:29.854Z,33.51
2019-03-30T14:25:00.058Z,34.23
2019-03-30T14:27:30.191Z,33.23
2019-03-30T14:30:00.441Z,34.10
2019-03-30T14:32:30.600Z,33.35
2019-03-30T14:35:00.754Z,34.43
2019-03-30T14:37:30.873Z,35.53
2019-03-30T14:40:00.991Z,33.45
2019-03-30T14:42:31.200Z,34.30
2019-03-30T14:45:01.334Z,34.02
2019-03-30T14:47:31.439Z,32.63
2019-03-30T14:50:01.604Z,33.88
2019-03-30T14:52:31.792Z,40.92
2019-03-30T14:55:01.962Z,39.59
2019-03-30T14:57:32.092Z,38.72
2019-03-30T15:00:02.208Z,37.80
2019-03-30T15:02:32.330Z,37.47
2019-03-30T15:05:02.505Z,37.56
2019-03-30T15:07:32.641Z,39.28
2019-03-30T15:10:02.759Z,36.40
2019-03-30T15:12:32.905Z,37.09
2019-03-30T15:15:03.003Z,37.33
2019-03-30T15:17:33.121Z,36.57
2019-03-30T15:20:03.295Z,35.86
2019-03-30T15:22:33.460Z,33.60
2019-03-30T15:25:03.624Z,33.08
2019-03-30T15:27:33.767Z,33.61
2019-03-30T15:30:04.028Z,34.30
2019-03-30T15:32:34.200Z,34.41
2019-03-30T15:35:04.650Z,34.34
2019-03-30T15:37:34.780Z,34.50
2019-03-30T15:40:05.392Z,35.05
2019-03-30T15:42:35.583Z,34.06
2019-03-30T15:45:06.096Z,34.22
2019-03-30T15:47:36.211Z,33.70
2019-03-30T15:50:07.454Z,34.97
2019-03-30T15:52:37.567Z,33.49
2019-03-30T15:55:08.112Z,33.88
2019-03-30T15:57:38.284Z,34.05
2019-03-30T16:00:10.534Z,34.47
2019-03-30T16:02:40.645Z,33.90
2019-03-30T16:05:15.052Z,33.47
2019-03-30T16:07:43.477Z,33.45
2019-03-30T16:10:14.046Z,33.89
2019-03-30T16:12:44.166Z,34.19
2019-03-30T16:15:14.407Z,34.24
2019-03-30T16:17:44.577Z,34.13
2019-03-30T16:20:15.265Z,34.19
2019-03-30T16:22:45.583Z,34.21
2019-03-30T16:25:15.965Z,33.96
2019-03-30T16:27:46.090Z,36.25
2019-03-30T16:30:16.525Z,34.97
2019-03-30T16:32:46.667Z,34.54
2019-03-30T16:37:52.092Z,36.01
2019-03-30T16:40:22.287Z,36.57
2019-03-30T16:42:52.456Z,37.51
2019-03-30T16:45:22.630Z,37.52
2019-03-30T16:47:52.770Z,37.91
2019-03-30T16:50:22.946Z,37.62
2019-03-30T16:52:53.076Z,37.18
2019-03-30T16:55:23.242Z,37.12
2019-03-30T16:57:53.400Z,37.62
2019-03-30T17:00:23.614Z,37.61
2019-03-30T17:02:53.831Z,37.75
2019-03-30T17:05:23.972Z,38.32
2019-03-30T17:07:54.180Z,38.26
2019-03-30T17:10:24.311Z,38.18
2019-03-30T17:12:54.436Z,38.71
2019-03-30T17:15:27.952Z,39.04
2019-03-30T17:17:58.076Z,38.57
2019-03-30T17:20:28.289Z,38.51
2019-03-30T17:22:59.032Z,38.75
2019-03-30T17:25:29.295Z,38.86
2019-03-30T17:27:59.425Z,39.11
2019-03-30T17:30:29.550Z,39.79
2019-03-30T17:32:59.799Z,39.65
2019-03-30T17:35:29.985Z,42.73
2019-03-30T17:38:00.153Z,39.55
2019-03-30T17:40:30.322Z,40.87
2019-03-30T17:43:00.468Z,41.43
2019-03-30T17:45:30.952Z,42.62
2019-03-30T17:48:01.104Z,42.30
2019-03-30T17:50:31.234Z,42.65
2019-03-30T17:53:01.354Z,42.73
2019-03-30T17:55:33.906Z,42.63
2019-03-30T17:58:12.916Z,42.57
2019-03-30T18:00:35.285Z,42.84
2019-03-30T18:03:05.417Z,43.04
2019-03-30T18:05:35.590Z,42.99
2019-03-30T18:08:05.823Z,42.91
2019-03-30T18:10:36.032Z,43.11
2019-03-30T18:13:06.183Z,43.26
2019-03-30T18:15:36.285Z,42.75
2019-03-30T18:18:06.463Z,43.03
2019-03-30T18:20:37.646Z,43.25
2019-03-30T18:23:07.832Z,42.71
2019-03-30T18:25:38.027Z,43.07
2019-03-30T18:28:08.157Z,42.80
2019-03-30T18:30:40.143Z,42.65
2019-03-30T18:33:10.397Z,43.24
2019-03-30T18:35:41.647Z,43.22
2019-03-30T18:38:13.165Z,43.65
2019-03-30T18:40:43.534Z,43.43
2019-03-30T18:43:13.677Z,43.67
2019-03-30T18:45:43.816Z,43.84
2019-03-30T18:48:15.198Z,43.49
2019-03-30T18:50:46.051Z,43.73
2019-03-30T18:53:17.289Z,43.63
2019-03-30T18:55:47.574Z,43.95
2019-03-30T18:58:17.704Z,44.48
2019-03-30T19:00:47.971Z,44.24
2019-03-30T19:03:20.037Z,44.08
2019-03-30T19:05:50.180Z,44.43
2019-03-30T19:08:20.511Z,45.90
2019-03-30T19:10:50.721Z,46.05
2019-03-30T19:13:21.008Z,45.28
2019-03-30T19:15:51.203Z,46.78
2019-03-30T19:18:21.525Z,47.24
2019-03-30T19:20:51.761Z,45.89
2019-03-30T19:23:22.017Z,46.56
2019-03-30T19:25:52.288Z,45.60
2019-03-30T19:28:22.523Z,46.26
2019-03-30T19:30:52.738Z,45.82
2019-03-30T19:33:23.023Z,45.56
2019-03-30T19:35:53.218Z,45.28
2019-03-30T19:38:23.514Z,45.57
2019-03-30T19:40:53.761Z,45.39
2019-03-30T19:43:23.972Z,45.23
2019-03-30T19:45:54.202Z,45.42
2019-03-30T19:48:24.410Z,45.37
2019-03-30T19:50:54.657Z,45.26
2019-03-30T19:53:24.887Z,45.79
2019-03-30T19:55:55.055Z,45.97
2019-03-30T19:58:25.282Z,45.66
2019-03-30T20:00:55.525Z,45.80
2019-03-30T20:03:25.963Z,45.77
2019-03-30T20:05:56.167Z,45.76
2019-03-30T20:08:26.424Z,45.62
2019-03-30T20:10:56.663Z,45.74
2019-03-30T20:13:26.889Z,45.82
2019-03-30T20:15:57.126Z,45.81
2019-03-30T20:18:27.443Z,45.90
2019-03-30T20:20:57.692Z,45.84
2019-03-30T20:23:28.037Z,45.24
2019-03-30T20:25:58.270Z,45.57
2019-03-30T20:28:28.489Z,45.45
2019-03-30T20:30:58.824Z,45.91
2019-03-30T20:33:29.106Z,45.43
2019-03-30T20:35:59.329Z,45.17
2019-03-30T20:38:29.604Z,44.97
2019-03-30T20:40:59.816Z,45.20
2019-03-30T20:43:29.967Z,44.48
2019-03-30T20:46:00.329Z,44.63
2019-03-30T20:48:30.579Z,44.67
2019-03-30T20:51:00.756Z,44.98
2019-03-30T20:53:31.016Z,45.51
2019-03-30T20:56:01.281Z,44.96
2019-03-30T20:58:31.567Z,44.55
2019-03-30T21:01:01.965Z,45.00
2019-03-30T21:03:32.196Z,44.90
2019-03-30T21:06:02.421Z,45.00
2019-03-30T21:08:32.639Z,44.84
2019-03-30T21:11:02.865Z,45.18
2019-03-30T21:13:33.116Z,45.48
2019-03-30T21:16:03.368Z,45.32
2019-03-30T21:18:33.651Z,45.20
2019-03-30T21:21:03.990Z,45.00
2019-03-30T21:23:34.267Z,45.15
2019-03-30T21:26:04.792Z,45.03
2019-03-30T21:28:35.050Z,44.99
2019-03-30T21:31:05.400Z,44.58
2019-03-30T21:33:35.634Z,46.97
2019-03-30T21:36:05.877Z,45.36
2019-03-30T21:38:36.198Z,45.82
2019-03-30T21:41:06.582Z,46.13
2019-03-30T21:43:36.796Z,45.68
2019-03-30T21:46:07.234Z,46.36
2019-03-30T21:48:37.530Z,48.16
2019-03-30T21:51:07.847Z,46.49
2019-03-30T21:53:38.073Z,47.65
2019-03-30T21:56:08.308Z,49.81
2019-03-30T21:58:38.560Z,47.13
2019-03-30T22:01:08.937Z,46.35
2019-03-30T22:03:39.254Z,46.94
2019-03-30T22:06:09.466Z,47.50
2019-03-30T22:08:40.197Z,47.53
2019-03-30T22:11:10.498Z,49.78
2019-03-30T22:13:40.682Z,49.35
2019-03-30T22:16:10.940Z,49.79
2019-03-30T22:18:41.219Z,50.33
2019-03-30T22:21:11.421Z,51.07
2019-03-30T22:23:41.682Z,51.25
2019-03-30T22:26:12.013Z,51.98
2019-03-30T22:28:42.281Z,53.50
2019-03-30T22:31:12.562Z,53.68
2019-03-30T22:33:42.766Z,53.73
2019-03-30T22:36:13.010Z,53.36
2019-03-30T22:38:43.287Z,53.35
2019-03-30T22:41:13.586Z,53.71
2019-03-30T22:43:43.795Z,54.60
2019-03-30T22:46:14.035Z,52.89
2019-03-30T22:48:44.295Z,53.45
2019-03-30T22:51:14.545Z,53.15
2019-03-30T22:53:44.766Z,51.75
2019-03-30T22:56:15.064Z,52.54
2019-03-30T22:58:45.396Z,52.77
2019-03-30T23:01:18.238Z,53.33
2019-03-30T23:03:48.635Z,52.60
2019-03-30T23:06:18.987Z,52.48
2019-03-30T23:08:49.265Z,52.35
2019-03-30T23:11:19.581Z,54.43
2019-03-30T23:13:49.876Z,53.49
2019-03-30T23:16:20.145Z,54.61
2019-03-30T23:18:50.443Z,54.63
2019-03-30T23:21:20.669Z,54.14
2019-03-30T23:23:50.879Z,53.79
2019-03-30T23:26:21.183Z,55.35
2019-03-30T23:28:51.414Z,55.49
2019-03-30T23:31:21.698Z,55.92
2019-03-30T23:33:51.921Z,55.99
2019-03-30T23:36:22.209Z,55.99
2019-03-30T23:38:52.474Z,55.31
2019-03-30T23:41:22.656Z,55.45
2019-03-30T23:43:52.920Z,55.44
2019-03-30T23:46:23.136Z,55.14
2019-03-30T23:48:53.328Z,55.93
2019-03-30T23:51:23.655Z,56.75
2019-03-30T23:53:53.876Z,56.69
2019-03-30T23:56:28.019Z,56.45
2019-03-30T23:58:58.297Z,56.50
